createdAt,value
2023-05-05T00:01:02.228Z,20.32
2023-05-05T00:03:29.986Z,20.35
2023-05-05T00:05:57.972Z,20.40
2023-05-05T00:08:25.682Z,20.44
2023-05-05T00:10:53.832Z,20.45
2023-05-05T00:13:22.020Z,20.44
2023-05-05T00:15:52.431Z,20.45
2023-05-05T00:18:20.999Z,20.48
2023-05-05T00:20:49.029Z,20.48
2023-05-05T00:23:17.481Z,20.46
2023-05-05T00:25:45.007Z,20.44
2023-05-05T00:28:14.001Z,20.45
2023-05-05T00:30:41.783Z,20.44
2023-05-05T00:33:11.045Z,20.43
2023-05-05T00:35:38.649Z,20.43
2023-05-05T00:38:06.937Z,20.41
2023-05-05T00:40:34.449Z,20.38
2023-05-05T00:43:02.616Z,20.36
2023-05-05T00:45:30.756Z,20.35
2023-05-05T00:48:00.608Z,20.35
2023-05-05T00:50:30.618Z,20.35
2023-05-05T00:53:02.944Z,20.35
2023-05-05T00:55:31.746Z,20.33
2023-05-05T00:58:01.084Z,20.16
2023-05-05T01:00:29.932Z,20.17
2023-05-05T01:02:57.829Z,20.18
2023-05-05T01:05:27.541Z,20.16
2023-05-05T01:08:05.599Z,20.16
2023-05-05T01:10:51.007Z,20.13
2023-05-05T01:13:55.211Z,20.12
2023-05-05T01:16:31.027Z,20.08
2023-05-05T01:19:45.711Z,20.01
2023-05-05T01:22:18.283Z,19.98
2023-05-05T01:25:33.671Z,19.91
2023-05-05T01:28:36.110Z,19.86
2023-05-05T01:31:57.642Z,19.83
2023-05-05T01:34:32.093Z,19.78
2023-05-05T01:37:11.448Z,19.73
2023-05-05T01:39:42.705Z,19.72
2023-05-05T01:42:14.982Z,19.69
2023-05-05T01:44:44.720Z,19.69
2023-05-05T01:47:16.631Z,19.72
2023-05-05T01:49:47.367Z,19.73
2023-05-05T01:52:16.238Z,19.80
2023-05-05T01:54:46.649Z,19.85
2023-05-05T01:57:15.421Z,19.92
2023-05-05T01:59:43.031Z,19.99
2023-05-05T02:02:12.922Z,20.02
2023-05-05T02:04:43.564Z,20.00
2023-05-05T02:07:13.589Z,20.05
2023-05-05T02:09:43.980Z,20.09
2023-05-05T02:12:12.401Z,20.05
2023-05-05T02:14:42.807Z,20.05
2023-05-05T02:17:11.498Z,20.02
2023-05-05T02:19:42.940Z,20.00
2023-05-05T02:22:12.232Z,19.98
2023-05-05T02:24:39.780Z,19.98
2023-05-05T02:27:08.716Z,19.93
2023-05-05T02:29:46.805Z,19.91
2023-05-05T02:32:42.731Z,19.95
2023-05-05T02:35:29.810Z,19.93
2023-05-05T02:38:05.551Z,19.96
2023-05-05T02:40:41.940Z,19.92
2023-05-05T02:43:16.679Z,19.92
2023-05-05T02:45:44.396Z,19.95
2023-05-05T02:48:13.058Z,19.96
2023-05-05T02:50:40.764Z,19.96
2023-05-05T02:53:26.158Z,19.97
2023-05-05T02:56:23.369Z,19.99
2023-05-05T02:59:07.652Z,19.97
2023-05-05T03:02:02.433Z,19.92
2023-05-05T03:04:46.969Z,19.91
2023-05-05T03:07:27.526Z,19.84
2023-05-05T03:10:14.847Z,19.79
2023-05-05T03:12:53.367Z,19.80
2023-05-05T03:15:32.150Z,19.81
2023-05-05T03:18:03.980Z,19.79
2023-05-05T03:20:31.995Z,19.79
2023-05-05T03:23:05.103Z,19.85
2023-05-05T03:25:50.161Z,19.73
2023-05-05T03:28:30.916Z,19.79
2023-05-05T03:31:02.391Z,19.79
2023-05-05T03:33:32.510Z,19.83
2023-05-05T03:36:01.423Z,19.85
2023-05-05T03:38:29.140Z,19.88
2023-05-05T03:40:56.692Z,19.70
2023-05-05T03:43:26.914Z,19.81
2023-05-05T03:45:54.521Z,19.88
2023-05-05T03:48:23.301Z,19.86
2023-05-05T03:50:52.917Z,19.83
2023-05-05T03:53:22.320Z,19.85
2023-05-05T03:55:50.148Z,19.88
2023-05-05T03:58:17.825Z,19.88
2023-05-05T04:00:45.422Z,19.89
2023-05-05T04:03:14.457Z,19.92
2023-05-05T04:05:43.297Z,19.94
2023-05-05T04:08:10.908Z,19.97
2023-05-05T04:10:38.471Z,19.97
2023-05-05T04:13:06.200Z,19.95
2023-05-05T04:15:34.287Z,19.94
2023-05-05T04:18:02.423Z,19.92
2023-05-05T04:20:30.169Z,19.93
2023-05-05T04:22:58.316Z,19.91
2023-05-05T04:25:25.910Z,19.92
2023-05-05T04:27:53.656Z,19.95
2023-05-05T04:30:21.235Z,19.96
2023-05-05T04:32:48.918Z,19.98
2023-05-05T04:35:17.014Z,19.99
2023-05-05T04:37:44.939Z,19.93
2023-05-05T04:40:13.075Z,19.95
2023-05-05T04:42:41.572Z,19.87
2023-05-05T04:45:09.766Z,19.89
2023-05-05T04:47:41.420Z,19.81
2023-05-05T04:50:11.238Z,19.88
2023-05-05T04:52:40.128Z,19.91
2023-05-05T04:55:10.557Z,19.91
2023-05-05T04:57:38.097Z,19.94
2023-05-05T05:00:07.600Z,19.90
2023-05-05T05:02:37.484Z,19.91
2023-05-05T05:05:05.503Z,19.94
2023-05-05T05:07:33.133Z,19.98
2023-05-05T05:10:00.724Z,19.93
2023-05-05T05:12:28.338Z,19.94
2023-05-05T05:14:55.834Z,19.95
2023-05-05T05:17:24.038Z,19.98
2023-05-05T05:19:51.745Z,19.97
2023-05-05T05:22:19.247Z,20.02
2023-05-05T05:24:46.825Z,20.09
2023-05-05T05:27:14.702Z,20.08
2023-05-05T05:29:45.496Z,20.15
2023-05-05T05:32:13.068Z,20.23
2023-05-05T05:34:40.692Z,20.24
2023-05-05T05:37:09.881Z,20.43
2023-05-05T05:39:39.424Z,20.56
2023-05-05T05:42:08.783Z,20.55
2023-05-05T05:44:36.553Z,20.63
2023-05-05T05:47:04.244Z,20.75
2023-05-05T05:49:31.783Z,20.81
2023-05-05T05:51:59.366Z,20.90
2023-05-05T05:54:26.980Z,20.89
2023-05-05T05:56:54.557Z,20.83
2023-05-05T05:59:22.180Z,20.92
2023-05-05T06:01:49.725Z,20.92
2023-05-05T06:04:17.528Z,20.89
2023-05-05T06:06:45.120Z,20.80
2023-05-05T06:09:12.857Z,20.92
2023-05-05T06:11:40.459Z,20.93
2023-05-05T06:14:08.291Z,21.12
2023-05-05T06:16:35.797Z,21.23
2023-05-05T06:19:09.572Z,21.31
2023-05-05T06:21:37.706Z,21.34
2023-05-05T06:24:05.577Z,21.46
2023-05-05T06:26:34.170Z,21.55
2023-05-05T06:29:01.897Z,21.55
2023-05-05T06:31:29.430Z,21.66
2023-05-05T06:33:56.987Z,21.57
2023-05-05T06:36:24.578Z,21.68
2023-05-05T06:38:52.117Z,21.73
2023-05-05T06:41:19.697Z,21.67
2023-05-05T06:43:47.195Z,21.63
2023-05-05T06:46:15.353Z,21.67
2023-05-05T06:48:42.896Z,21.64
2023-05-05T06:51:10.406Z,21.69
2023-05-05T06:53:37.890Z,21.67
2023-05-05T06:56:05.926Z,21.79
2023-05-05T06:58:33.450Z,21.90
2023-05-05T07:01:01.054Z,21.88
2023-05-05T07:03:28.672Z,21.84
2023-05-05T07:05:56.433Z,21.89
2023-05-05T07:08:24.877Z,21.91
2023-05-05T07:10:52.387Z,21.86
2023-05-05T07:13:20.018Z,21.94
2023-05-05T07:15:47.621Z,21.93
2023-05-05T07:18:16.498Z,21.98
2023-05-05T07:20:44.660Z,22.02
2023-05-05T07:23:12.764Z,22.08
2023-05-05T07:25:40.342Z,22.03
2023-05-05T07:28:07.896Z,21.93
2023-05-05T07:30:35.439Z,21.96
2023-05-05T07:33:03.549Z,21.95
2023-05-05T07:35:31.106Z,21.89
2023-05-05T07:37:58.599Z,21.91
2023-05-05T07:40:26.252Z,21.88
2023-05-05T07:42:53.911Z,21.93
2023-05-05T07:45:21.610Z,21.99
2023-05-05T07:47:49.212Z,22.03
2023-05-05T07:50:17.037Z,21.95
2023-05-05T07:52:50.007Z,21.97
2023-05-05T07:55:23.804Z,21.98
2023-05-05T07:57:51.355Z,22.09
2023-05-05T08:00:19.473Z,22.20
2023-05-05T08:02:47.875Z,22.29
2023-05-05T08:05:16.409Z,22.36
2023-05-05T08:07:43.995Z,22.39
2023-05-05T08:10:12.608Z,22.42
2023-05-05T08:12:40.643Z,22.41
2023-05-05T08:15:08.964Z,22.48
2023-05-05T08:17:51.521Z,22.47
2023-05-05T08:20:21.205Z,22.53
2023-05-05T08:22:49.505Z,22.57
2023-05-05T08:25:17.017Z,22.60
2023-05-05T08:27:45.532Z,22.64
2023-05-05T08:30:13.443Z,22.67
2023-05-05T08:32:41.231Z,22.74
2023-05-05T08:35:09.454Z,22.79
2023-05-05T08:37:37.242Z,22.83
2023-05-05T08:40:06.157Z,22.79
2023-05-05T08:42:38.732Z,22.85
2023-05-05T08:45:10.899Z,22.92
2023-05-05T08:47:39.559Z,22.97
2023-05-05T08:50:10.999Z,23.00
2023-05-05T08:52:43.565Z,23.04
2023-05-05T08:55:24.024Z,23.09
2023-05-05T08:57:58.207Z,23.14
2023-05-05T09:00:27.181Z,23.21
2023-05-05T09:02:58.198Z,23.25
2023-05-05T09:05:27.132Z,23.33
2023-05-05T09:07:54.820Z,23.42
2023-05-05T09:10:22.566Z,23.48
2023-05-05T09:12:51.584Z,23.52
2023-05-05T09:15:19.277Z,23.59
2023-05-05T09:17:47.167Z,23.65
2023-05-05T09:20:15.487Z,23.66
2023-05-05T09:22:46.073Z,23.65
2023-05-05T09:25:16.175Z,23.66
2023-05-05T09:27:49.116Z,23.67
2023-05-05T09:30:24.865Z,23.64
2023-05-05T09:32:54.802Z,23.63
2023-05-05T09:35:23.352Z,23.65
2023-05-05T09:37:50.960Z,23.72
2023-05-05T09:40:20.226Z,23.80
2023-05-05T09:42:48.266Z,23.91
2023-05-05T09:45:18.540Z,23.93
2023-05-05T09:47:47.336Z,23.93
2023-05-05T09:50:18.566Z,23.86
2023-05-05T09:53:03.307Z,23.81
2023-05-05T09:55:31.383Z,23.73
2023-05-05T09:58:23.399Z,23.67
2023-05-05T10:00:51.500Z,23.64
2023-05-05T10:03:19.525Z,23.52
2023-05-05T10:06:01.029Z,23.47
2023-05-05T10:08:31.381Z,23.44
2023-05-05T10:11:07.239Z,23.44
2023-05-05T10:13:41.832Z,23.39
2023-05-05T10:16:11.215Z,23.37
2023-05-05T10:18:46.249Z,23.34
2023-05-05T10:21:18.067Z,23.34
2023-05-05T10:23:57.236Z,23.37
2023-05-05T10:26:27.545Z,23.37
2023-05-05T10:28:56.571Z,23.34
2023-05-05T10:31:43.423Z,23.34
2023-05-05T10:34:24.083Z,23.37
2023-05-05T10:36:52.001Z,23.37
2023-05-05T10:39:21.036Z,23.34
2023-05-05T10:41:50.033Z,23.26
2023-05-05T10:44:18.055Z,23.21
2023-05-05T10:46:46.835Z,23.19
2023-05-05T10:49:32.860Z,23.17
2023-05-05T10:52:12.063Z,23.17
2023-05-05T10:54:50.523Z,23.14
2023-05-05T10:57:22.798Z,23.12
2023-05-05T10:59:50.351Z,23.18
2023-05-05T11:02:29.609Z,23.18
2023-05-05T11:05:06.932Z,23.26
2023-05-05T11:07:34.585Z,23.32
2023-05-05T11:10:04.933Z,23.41
2023-05-05T11:12:53.707Z,23.54
2023-05-05T11:15:37.286Z,23.71
2023-05-05T11:18:07.898Z,23.81
2023-05-05T11:20:40.049Z,23.88
2023-05-05T11:23:07.524Z,24.00
2023-05-05T11:25:35.464Z,24.09
2023-05-05T11:28:31.463Z,24.21
2023-05-05T11:31:01.757Z,24.35
2023-05-05T11:33:37.674Z,24.48
2023-05-05T11:36:13.850Z,24.44
2023-05-05T11:39:24.075Z,24.46
2023-05-05T11:42:26.233Z,24.59
2023-05-05T11:44:54.605Z,24.66
2023-05-05T11:47:21.994Z,24.74
2023-05-05T11:49:50.361Z,24.67
2023-05-05T11:52:17.899Z,24.78
2023-05-05T11:54:48.603Z,24.75
2023-05-05T11:57:27.849Z,24.82
2023-05-05T12:00:08.132Z,24.91
2023-05-05T12:02:36.635Z,24.91
2023-05-05T12:05:04.883Z,25.00
2023-05-05T12:07:33.623Z,25.10
2023-05-05T12:10:01.413Z,25.17
2023-05-05T12:12:40.419Z,25.24
2023-05-05T12:15:09.745Z,25.27
2023-05-05T12:17:44.903Z,25.40
2023-05-05T12:20:13.795Z,25.46
2023-05-05T12:22:41.470Z,25.51
2023-05-05T12:25:10.652Z,25.66
2023-05-05T12:27:38.558Z,25.81
2023-05-05T12:30:18.331Z,25.98
2023-05-05T12:32:46.290Z,26.13
2023-05-05T12:35:14.486Z,26.19
2023-05-05T12:37:43.228Z,26.27
2023-05-05T12:40:48.869Z,26.24
2023-05-05T12:43:27.880Z,26.34
2023-05-05T12:46:09.020Z,26.46
2023-05-05T12:48:39.305Z,26.57
2023-05-05T12:51:16.885Z,26.73
2023-05-05T12:53:49.746Z,26.78
2023-05-05T12:56:44.156Z,26.86
2023-05-05T12:59:29.236Z,26.90
2023-05-05T13:02:02.505Z,26.85
2023-05-05T13:05:01.454Z,26.94
2023-05-05T13:07:29.017Z,26.97
2023-05-05T13:10:12.668Z,26.95
2023-05-05T13:12:40.260Z,26.97
2023-05-05T13:15:09.053Z,27.03
2023-05-05T13:17:36.774Z,27.17
2023-05-05T13:20:05.756Z,27.25
2023-05-05T13:22:33.262Z,27.26
2023-05-05T13:25:00.804Z,27.18
2023-05-05T13:27:28.402Z,27.14
2023-05-05T13:29:55.999Z,26.98
2023-05-05T13:32:23.639Z,26.75
2023-05-05T13:34:51.355Z,26.60
2023-05-05T13:37:18.946Z,26.59
2023-05-05T13:39:46.458Z,26.58
2023-05-05T13:42:13.931Z,26.58
2023-05-05T13:44:41.466Z,26.55
2023-05-05T13:47:09.150Z,26.46
2023-05-05T13:49:36.920Z,26.31
2023-05-05T13:52:04.586Z,26.18
2023-05-05T13:54:32.231Z,26.00
2023-05-05T13:56:59.971Z,25.92
2023-05-05T13:59:28.161Z,25.83
2023-05-05T14:01:55.886Z,25.70
2023-05-05T14:04:23.436Z,25.50
2023-05-05T14:06:50.976Z,25.46
2023-05-05T14:09:18.548Z,25.37
2023-05-05T14:11:46.034Z,25.41
2023-05-05T14:14:13.582Z,25.46
2023-05-05T14:16:41.152Z,25.46
2023-05-05T14:19:08.708Z,25.58
2023-05-05T14:21:36.417Z,25.66
2023-05-05T14:24:04.121Z,25.79
2023-05-05T14:26:31.690Z,25.88
2023-05-05T14:28:59.246Z,25.95
2023-05-05T14:31:26.822Z,25.91
2023-05-05T14:33:54.457Z,26.01
2023-05-05T14:36:21.929Z,25.97
2023-05-05T14:38:49.637Z,25.97
2023-05-05T14:41:17.200Z,26.00
2023-05-05T14:43:44.777Z,25.93
2023-05-05T14:46:12.386Z,25.87
2023-05-05T14:48:40.079Z,25.83
2023-05-05T14:51:07.801Z,25.74
2023-05-05T14:53:35.799Z,25.68
2023-05-05T14:56:03.402Z,25.59
2023-05-05T14:58:30.984Z,25.41
2023-05-05T15:00:58.904Z,25.34
2023-05-05T15:03:27.136Z,25.29
2023-05-05T15:05:54.759Z,25.25
2023-05-05T15:08:22.481Z,25.15
2023-05-05T15:10:50.010Z,25.10
2023-05-05T15:13:18.392Z,25.04
2023-05-05T15:15:45.995Z,24.94
2023-05-05T15:18:13.524Z,24.89
2023-05-05T15:20:41.021Z,24.90
2023-05-05T15:23:08.691Z,24.84
2023-05-05T15:25:36.510Z,24.74
2023-05-05T15:28:04.180Z,24.67
2023-05-05T15:30:31.766Z,24.63
2023-05-05T15:32:59.420Z,24.63
2023-05-05T15:35:27.022Z,24.58
2023-05-05T15:37:54.753Z,24.52
2023-05-05T15:40:22.569Z,24.43
2023-05-05T15:42:50.107Z,24.43
2023-05-05T15:45:17.849Z,24.38
2023-05-05T15:47:46.108Z,24.35
2023-05-05T15:50:14.201Z,24.31
2023-05-05T15:52:41.906Z,24.25
2023-05-05T15:55:10.832Z,24.17
2023-05-05T15:57:41.330Z,24.08
2023-05-05T16:00:09.741Z,23.99
2023-05-05T16:02:38.146Z,23.89
2023-05-05T16:05:06.658Z,23.81
2023-05-05T16:07:34.385Z,23.76
2023-05-05T16:10:02.073Z,23.60
2023-05-05T16:12:29.729Z,23.49
2023-05-05T16:14:57.318Z,23.34
2023-05-05T16:17:24.867Z,23.21
2023-05-05T16:19:52.365Z,22.99
2023-05-05T16:22:20.940Z,22.79
2023-05-05T16:24:48.457Z,22.45
2023-05-05T16:27:16.431Z,22.01
2023-05-05T16:29:43.937Z,21.45
2023-05-05T16:32:12.270Z,20.80
2023-05-05T16:34:39.790Z,20.61
2023-05-05T16:37:07.318Z,20.31
2023-05-05T16:39:40.389Z,20.48
2023-05-05T16:42:08.079Z,19.74
2023-05-05T16:44:35.630Z,19.42
2023-05-05T16:47:03.196Z,19.43
2023-05-05T16:49:30.692Z,19.56
2023-05-05T16:51:58.255Z,19.46
2023-05-05T16:54:25.770Z,19.31
2023-05-05T16:56:53.719Z,19.47
2023-05-05T16:59:21.208Z,19.40
2023-05-05T17:01:48.737Z,19.51
2023-05-05T17:04:16.456Z,19.63
2023-05-05T17:06:44.001Z,19.70
2023-05-05T17:09:11.517Z,19.67
2023-05-05T17:11:39.067Z,19.43
2023-05-05T17:14:06.585Z,19.38
2023-05-05T17:16:34.348Z,19.28
2023-05-05T17:19:01.908Z,19.19
2023-05-05T17:21:29.419Z,19.24
2023-05-05T17:23:57.299Z,19.18
2023-05-05T17:26:24.979Z,19.26
2023-05-05T17:28:52.460Z,19.23
2023-05-05T17:31:19.978Z,19.17
2023-05-05T17:33:47.550Z,19.05
2023-05-05T17:36:15.089Z,19.04
2023-05-05T17:38:42.618Z,19.01
2023-05-05T17:41:10.778Z,19.12
2023-05-05T17:43:38.389Z,19.24
2023-05-05T17:46:05.942Z,19.21
2023-05-05T17:48:33.511Z,18.99
2023-05-05T17:51:01.260Z,19.19
2023-05-05T17:53:28.731Z,19.08
2023-05-05T17:55:56.292Z,19.19
2023-05-05T17:58:23.911Z,19.32
2023-05-05T18:00:51.395Z,19.44
2023-05-05T18:03:19.117Z,19.54
2023-05-05T18:05:46.818Z,19.63
2023-05-05T18:08:14.344Z,19.63
2023-05-05T18:10:42.359Z,19.52
2023-05-05T18:13:09.896Z,19.57
2023-05-05T18:15:37.432Z,19.68
2023-05-05T18:18:05.117Z,19.70
2023-05-05T18:20:32.644Z,19.67
2023-05-05T18:23:00.153Z,19.63
2023-05-05T18:25:27.639Z,19.65
2023-05-05T18:27:55.201Z,19.64
2023-05-05T18:30:22.755Z,19.60
2023-05-05T18:32:50.374Z,19.59
2023-05-05T18:35:18.047Z,19.53
2023-05-05T18:37:45.566Z,19.35
2023-05-05T18:40:13.423Z,19.32
2023-05-05T18:42:41.532Z,19.38
2023-05-05T18:45:10.522Z,19.22
2023-05-05T18:47:39.284Z,19.34
2023-05-05T18:50:08.306Z,19.25
2023-05-05T18:52:35.874Z,19.18
2023-05-05T18:55:03.800Z,19.12
2023-05-05T18:57:31.304Z,19.06
2023-05-05T18:59:58.939Z,19.00
2023-05-05T19:02:26.927Z,18.98
2023-05-05T19:04:54.480Z,18.99
2023-05-05T19:07:33.960Z,18.86
2023-05-05T19:10:04.686Z,18.91
2023-05-05T19:12:32.260Z,19.05
2023-05-05T19:14:59.785Z,18.92
2023-05-05T19:17:27.606Z,19.05
2023-05-05T19:19:55.556Z,18.96
2023-05-05T19:22:23.865Z,18.89
2023-05-05T19:24:51.413Z,18.84
2023-05-05T19:27:19.056Z,18.80
2023-05-05T19:29:51.778Z,18.82
2023-05-05T19:32:20.897Z,18.81
2023-05-05T19:34:48.784Z,18.78
2023-05-05T19:37:16.318Z,18.78
2023-05-05T19:39:45.523Z,18.89
2023-05-05T19:42:13.126Z,18.97
2023-05-05T19:44:40.687Z,19.00
2023-05-05T19:47:09.017Z,18.98
2023-05-05T19:49:37.841Z,18.98
2023-05-05T19:52:05.537Z,18.82
2023-05-05T19:54:33.018Z,18.77
2023-05-05T19:57:00.713Z,18.89
2023-05-05T19:59:29.170Z,18.67
2023-05-05T20:01:56.804Z,18.80
2023-05-05T20:04:24.354Z,18.61
2023-05-05T20:06:51.930Z,18.64
2023-05-05T20:09:19.672Z,18.68
2023-05-05T20:11:47.186Z,18.69
2023-05-05T20:14:14.725Z,18.77
2023-05-05T20:16:42.220Z,18.83
2023-05-05T20:19:09.686Z,18.86
2023-05-05T20:21:37.209Z,18.92
2023-05-05T20:24:05.981Z,18.97
2023-05-05T20:26:33.739Z,18.99
2023-05-05T20:29:02.054Z,18.99
2023-05-05T20:31:29.542Z,18.98
2023-05-05T20:33:57.071Z,18.98
2023-05-05T20:36:26.543Z,18.98
2023-05-05T20:38:54.292Z,19.03
2023-05-05T20:41:21.986Z,19.10
2023-05-05T20:43:49.584Z,19.12
2023-05-05T20:46:17.174Z,19.08
2023-05-05T20:48:44.750Z,19.12
2023-05-05T20:51:12.328Z,19.14
2023-05-05T20:53:39.961Z,19.11
2023-05-05T20:56:08.846Z,19.08
2023-05-05T20:58:36.654Z,19.11
2023-05-05T21:01:04.180Z,19.05
2023-05-05T21:03:31.771Z,19.03
2023-05-05T21:05:59.335Z,18.91
2023-05-05T21:08:26.997Z,18.94
2023-05-05T21:10:54.525Z,18.97
2023-05-05T21:13:22.993Z,18.99
2023-05-05T21:15:50.683Z,19.03
2023-05-05T21:18:18.207Z,19.04
2023-05-05T21:20:45.748Z,19.01
2023-05-05T21:23:13.479Z,19.02
2023-05-05T21:25:41.044Z,18.96
2023-05-05T21:28:08.540Z,19.02
2023-05-05T21:30:36.081Z,18.92
2023-05-05T21:33:03.691Z,18.94
2023-05-05T21:35:31.281Z,18.95
2023-05-05T21:37:58.924Z,18.93
2023-05-05T21:40:26.773Z,18.94
2023-05-05T21:42:54.334Z,18.96
2023-05-05T21:45:21.888Z,18.89
2023-05-05T21:47:49.453Z,18.95
2023-05-05T21:50:16.994Z,18.96
2023-05-05T21:52:44.488Z,18.95
2023-05-05T21:55:12.053Z,18.95
2023-05-05T21:57:39.597Z,18.98
2023-05-05T22:00:08.948Z,18.97
2023-05-05T22:02:44.762Z,18.94
2023-05-05T22:05:12.423Z,18.89
2023-05-05T22:07:40.654Z,18.83
2023-05-05T22:10:09.106Z,18.84
2023-05-05T22:12:36.822Z,18.88
2023-05-05T22:15:04.948Z,18.86
2023-05-05T22:17:32.515Z,18.87
2023-05-05T22:20:00.067Z,18.92
2023-05-05T22:22:27.628Z,18.96
2023-05-05T22:24:55.251Z,18.97
2023-05-05T22:27:22.766Z,18.90
2023-05-05T22:29:50.776Z,18.88
2023-05-05T22:32:18.260Z,18.88
2023-05-05T22:34:45.774Z,18.87
2023-05-05T22:37:14.181Z,18.85
2023-05-05T22:39:41.725Z,18.86
2023-05-05T22:42:09.263Z,18.76
2023-05-05T22:44:36.753Z,18.75
2023-05-05T22:47:04.486Z,18.78
2023-05-05T22:49:32.055Z,18.79
2023-05-05T22:51:59.663Z,18.81
2023-05-05T22:54:27.170Z,18.83
2023-05-05T22:56:54.985Z,18.83
2023-05-05T22:59:22.541Z,18.84
2023-05-05T23:01:50.212Z,18.86
2023-05-05T23:04:17.775Z,18.85
2023-05-05T23:06:46.154Z,18.84
2023-05-05T23:09:13.791Z,18.82
2023-05-05T23:11:41.354Z,18.82
2023-05-05T23:14:08.811Z,18.78
2023-05-05T23:16:36.354Z,18.81
2023-05-05T23:19:03.877Z,18.79
2023-05-05T23:21:33.995Z,18.78
2023-05-05T23:24:03.982Z,18.73
2023-05-05T23:26:31.662Z,18.69
2023-05-05T23:28:59.197Z,18.53
2023-05-05T23:31:26.718Z,18.48
2023-05-05T23:33:54.274Z,18.35
2023-05-05T23:36:21.760Z,18.29
2023-05-05T23:38:49.330Z,18.27
2023-05-05T23:41:18.262Z,18.32
2023-05-05T23:43:46.757Z,18.37
2023-05-05T23:46:14.930Z,18.38
2023-05-05T23:48:42.590Z,18.20
2023-05-05T23:51:10.148Z,18.12
2023-05-05T23:53:37.671Z,17.87
2023-05-05T23:56:05.717Z,17.91
2023-05-05T23:58:33.276Z,17.81
